New York, NY (10028)

10:24 AM EDT on March 28, 2015 (GMT -0400)
American Museum of Natural History roof | | Change Station
CLOSE
Current Station
Personal Weather Station
Location: New York, NY
Elevation: 89 ft
Nearby Weather Stations

Elev 89 ft 40.78 °N, 73.97 °W | Updated 7 minutes ago

Overcast
Overcast
33.5 °F
Feels Like 34 °F
N
0.0
Wind Variable Wind from SW
Gusts 16.0 mph

Today
High -- | Low -- °F
--% Chance of Precip.
Yesterday
High -- | Low -- °F
Precip. -- in
6:46 AM 7:16 PM
Waxing Gibbous, 62% visible
Pressure 29.82 in
Visibility 10.0 miles
Clouds Overcast 4700 ft
Windchill 34 °F
Dew Point 20 °F
Humidity 57%
Rainfall 0.00 in
Snow Depth Not available.
UV 1 out of 12
Pollen 8.00 out of 12
Air Quality Not available.
Flu Activity Not available.
METAR KNYC 281351Z AUTO 30007KT 10SM OVC047 01/M08 A2984 RMK AO2 SLP096 T00111078 $

More Conditions Fewer Conditions

Pressure 29.82 in
Visibility 10.0 miles
Clouds Overcast 4700 ft
Windchill 34 °F
Dew Point 20 °F
Humidity 57%
Rainfall 0.00 in
Snow Depth Not available.
UV 1 out of 12
Pollen 8.00 out of 12
Air Quality Not available.
Flu Activity Not available.
METAR KNYC 281351Z AUTO 30007KT 10SM OVC047 01/M08 A2984 RMK AO2 SLP096 T00111078 $

More Conditions Fewer Conditions

10-Day Weather Forecast

Almanac

Astronomy

Mar. 28, 2015 Rise Set
Actual Time
Civil Twilight
Nautical Twilight
Astronomical Twilight
Moon
Length of Visible Light
Length of Day
Tomorrow will be .
, % of the Moon is Illuminated

Today's Extremes

State Highs State Lows

Community

WunderPhotos

Upload Photos

1,808,984 photos uploaded!

WunderBlogs® & News

Nearby

Air Quality

  Air Quality AQ Index Pollutant
Not available.

Snow Depth

Station Depth Elevation

Earthquake Activity

City Distance Mag. Time & Date
Minimum magnitude displayed is 2.5.

Coastal Water Temperatures

Place Temperature

Stations

Nearby Weather Stations

Station Location Temp. Windchill Dew Point Humidity Wind Precip. Elev Updated Type